Main page
Satellite images 15-day forecastsClimateMarine weather Cyclones Lightning AirportsFAQ Newsletter About
Weather : Europe Africa North America South America Asia Australia-Oceania Others
Languages Contact

Pontianak, Indonesia

latitude: 00-09S, longitude: 109-24E, elevation: 3 m


METAR: WIOO 020100Z 18004KT 5000 HZ SCT010 27/25 Q1012 NSW
short-TAF: out of date (62290 hours)
long-TAF: out of date (3835 hours)

Time: 08:48 (01:48 UTC)

Current weather observation

The report was made 48 minutes ago, at 01:00 UTC  
Wind 04 kt from the South
Temperature 27°C
Humidity 89%
Pressure 1012 hPa
Visibility 5000 m
Scattered clouds at a height of 1000 ft
haze

Change units
The information on this site is subject to a disclaimer
Weather : Europe Africa North America South America Asia Australia-Oceania Others
Satellite images 15-day forecastsClimateMarine weather Cyclones Lightning AirportsFAQ Languages Contact Newsletter About